createdAt,value
2019-03-29T00:01:08.016Z,52.50
2019-03-29T00:04:13.568Z,52.40
2019-03-29T00:07:20.208Z,52.80
2019-03-29T00:10:25.608Z,52.70
2019-03-29T00:13:38.306Z,52.60
2019-03-29T00:16:43.680Z,53.20
2019-03-29T00:20:07.939Z,53.20
2019-03-29T00:23:13.574Z,53.20
2019-03-29T00:26:19.032Z,53.30
2019-03-29T00:29:25.861Z,53.40
2019-03-29T00:32:31.922Z,53.50
2019-03-29T00:35:40.014Z,53.70
2019-03-29T00:38:46.641Z,54.10
2019-03-29T00:41:52.328Z,54.10
2019-03-29T00:44:58.068Z,54.10
2019-03-29T00:48:03.910Z,54.00
2019-03-29T00:51:09.375Z,53.90
2019-03-29T00:54:14.893Z,53.90
2019-03-29T00:57:20.480Z,54.20
2019-03-29T01:00:36.231Z,54.20
2019-03-29T01:03:43.502Z,54.10
2019-03-29T01:06:48.790Z,54.60
2019-03-29T01:09:56.254Z,54.80
2019-03-29T01:13:02.130Z,54.70
2019-03-29T01:16:08.016Z,55.30
2019-03-29T01:19:13.276Z,54.90
2019-03-29T01:22:19.129Z,54.80
2019-03-29T01:25:24.809Z,55.10
2019-03-29T01:28:30.538Z,55.00
2019-03-29T01:31:36.079Z,55.50
2019-03-29T01:34:43.038Z,55.70
2019-03-29T01:37:48.487Z,55.50
2019-03-29T01:40:53.733Z,55.50
2019-03-29T01:44:00.006Z,55.70
2019-03-29T01:47:05.665Z,56.10
2019-03-29T01:50:11.448Z,56.20
2019-03-29T01:53:16.967Z,56.90
2019-03-29T01:56:22.731Z,56.20
2019-03-29T01:59:29.543Z,56.20
2019-03-29T02:02:38.016Z,56.10
2019-03-29T02:05:43.689Z,56.10
2019-03-29T02:08:49.248Z,56.20
2019-03-29T02:11:54.846Z,56.20
2019-03-29T02:15:00.546Z,56.40
2019-03-29T02:18:06.403Z,56.60
2019-03-29T02:21:12.191Z,57.00
2019-03-29T02:24:17.593Z,57.40
2019-03-29T02:27:23.201Z,57.40
2019-03-29T02:30:29.016Z,57.50
2019-03-29T02:33:34.514Z,57.50
2019-03-29T02:36:40.081Z,57.90
2019-03-29T02:39:45.599Z,57.90
2019-03-29T02:42:51.112Z,58.10
2019-03-29T02:45:57.588Z,58.30
2019-03-29T02:49:03.239Z,58.40
2019-03-29T02:52:08.810Z,58.50
2019-03-29T02:55:14.974Z,59.00
2019-03-29T02:58:20.738Z,59.00
2019-03-29T03:01:26.462Z,59.20
2019-03-29T03:04:32.246Z,59.20
2019-03-29T03:07:38.076Z,59.20
2019-03-29T03:10:43.933Z,59.20
2019-03-29T03:13:49.467Z,59.20
2019-03-29T03:16:54.916Z,59.10
2019-03-29T03:20:00.712Z,59.20
2019-03-29T03:23:06.773Z,59.30
2019-03-29T03:26:12.495Z,59.50
2019-03-29T03:29:17.862Z,59.60
2019-03-29T03:32:23.385Z,59.60
2019-03-29T03:35:29.009Z,59.60
2019-03-29T03:38:34.493Z,59.70
2019-03-29T03:41:39.981Z,59.90
2019-03-29T03:44:45.412Z,59.80
2019-03-29T03:47:51.189Z,60.00
2019-03-29T03:50:56.798Z,60.20
2019-03-29T03:54:02.617Z,60.20
2019-03-29T03:57:08.716Z,60.50
2019-03-29T04:00:24.889Z,60.50
2019-03-29T04:03:31.206Z,60.60
2019-03-29T04:06:36.555Z,60.60
2019-03-29T04:09:50.058Z,60.50
2019-03-29T04:12:49.097Z,60.50
2019-03-29T04:15:54.955Z,60.50
2019-03-29T04:19:00.441Z,60.70
2019-03-29T04:22:05.925Z,60.70
2019-03-29T04:25:11.414Z,60.80
2019-03-29T04:28:17.065Z,62.00
2019-03-29T04:31:22.801Z,62.00
2019-03-29T04:34:28.363Z,62.20
2019-03-29T04:37:34.239Z,62.40
2019-03-29T04:40:39.858Z,62.90
2019-03-29T04:43:45.246Z,62.90
2019-03-29T04:46:52.200Z,62.90
2019-03-29T04:49:59.096Z,62.80
2019-03-29T04:53:04.624Z,62.80
2019-03-29T04:56:10.110Z,62.70
2019-03-29T04:59:15.818Z,62.70
2019-03-29T05:02:21.953Z,62.70
2019-03-29T05:05:27.559Z,63.00
2019-03-29T05:08:33.089Z,63.20
2019-03-29T05:11:38.718Z,63.10
2019-03-29T05:14:44.202Z,63.00
2019-03-29T05:17:49.533Z,63.00
2019-03-29T05:20:55.089Z,63.40
2019-03-29T05:24:00.680Z,63.10
2019-03-29T05:27:06.398Z,63.00
2019-03-29T05:30:12.153Z,62.90
2019-03-29T05:33:17.725Z,61.50
2019-03-29T05:36:23.301Z,61.10
2019-03-29T05:39:28.846Z,60.70
2019-03-29T05:42:39.087Z,60.10
2019-03-29T05:45:44.819Z,59.90
2019-03-29T05:48:50.611Z,59.80
2019-03-29T05:51:56.957Z,59.50
2019-03-29T05:55:02.340Z,59.20
2019-03-29T05:58:07.901Z,59.10
2019-03-29T06:01:13.640Z,58.90
2019-03-29T06:04:19.154Z,58.80
2019-03-29T06:07:24.748Z,58.50
2019-03-29T06:10:30.303Z,58.00
2019-03-29T06:13:36.058Z,57.20
2019-03-29T06:16:41.904Z,56.30
2019-03-29T06:19:47.527Z,56.00
2019-03-29T06:22:53.127Z,55.30
2019-03-29T06:25:58.754Z,55.20
2019-03-29T06:29:04.294Z,53.70
2019-03-29T06:32:10.292Z,53.20
2019-03-29T06:35:16.248Z,52.80
2019-03-29T06:38:24.519Z,53.20
2019-03-29T06:41:30.101Z,51.80
2019-03-29T06:44:35.773Z,50.00
2019-03-29T06:47:49.734Z,49.90
2019-03-29T06:50:55.535Z,49.90
2019-03-29T06:54:01.080Z,49.60
2019-03-29T06:57:06.746Z,49.70
2019-03-29T07:00:12.396Z,49.00
2019-03-29T07:03:18.172Z,49.00
2019-03-29T07:06:23.802Z,49.20
2019-03-29T07:09:29.258Z,49.30
2019-03-29T07:12:34.993Z,49.10
2019-03-29T07:15:40.567Z,48.70
2019-03-29T07:18:45.935Z,48.00
2019-03-29T07:21:53.522Z,46.60
2019-03-29T07:24:59.291Z,44.30
2019-03-29T07:28:04.830Z,43.80
2019-03-29T07:31:10.627Z,41.60
2019-03-29T07:34:17.095Z,40.30
2019-03-29T07:37:22.708Z,39.00
2019-03-29T07:40:28.279Z,37.70
2019-03-29T07:43:33.845Z,37.70
2019-03-29T07:46:39.592Z,34.50
2019-03-29T07:49:45.345Z,31.30
2019-03-29T07:52:50.898Z,29.50
2019-03-29T07:55:57.049Z,28.90
2019-03-29T07:59:02.799Z,27.70
2019-03-29T08:02:08.545Z,26.70
2019-03-29T08:05:14.141Z,26.50
2019-03-29T08:08:24.254Z,25.50
2019-03-29T08:11:28.393Z,24.90
2019-03-29T08:14:34.483Z,25.30
2019-03-29T08:17:39.987Z,26.30
2019-03-29T08:20:46.151Z,27.70
2019-03-29T08:23:52.312Z,29.00
2019-03-29T08:26:58.313Z,29.30
2019-03-29T08:30:04.368Z,29.40
2019-03-29T08:33:09.861Z,29.60
2019-03-29T08:36:15.530Z,29.90
2019-03-29T08:39:27.761Z,30.40
2019-03-29T08:42:29.768Z,30.60
2019-03-29T08:45:35.604Z,31.20
2019-03-29T08:48:44.148Z,31.60
2019-03-29T08:51:48.272Z,32.10
2019-03-29T08:54:54.385Z,32.30
2019-03-29T08:58:00.172Z,32.00
2019-03-29T09:01:06.033Z,32.00
2019-03-29T09:04:11.945Z,31.50
2019-03-29T09:07:17.970Z,31.00
2019-03-29T09:10:28.208Z,30.80
2019-03-29T09:13:33.665Z,31.00
2019-03-29T09:16:41.277Z,30.40
2019-03-29T09:19:47.138Z,29.90
2019-03-29T09:22:52.797Z,29.60
2019-03-29T09:25:59.447Z,27.30
2019-03-29T09:29:05.425Z,26.10
2019-03-29T09:32:11.240Z,24.40
2019-03-29T09:35:16.883Z,24.20
2019-03-29T09:38:23.929Z,24.50
2019-03-29T09:41:30.569Z,25.10
2019-03-29T09:44:36.523Z,25.70
2019-03-29T09:47:42.169Z,25.20
2019-03-29T09:50:50.576Z,24.90
2019-03-29T09:53:57.763Z,25.20
2019-03-29T09:57:01.994Z,25.70
2019-03-29T10:00:19.182Z,25.60
2019-03-29T10:03:16.587Z,23.90
2019-03-29T10:06:22.436Z,20.40
2019-03-29T10:09:28.104Z,18.40
2019-03-29T10:12:43.242Z,16.10
2019-03-29T10:15:41.974Z,14.10
2019-03-29T10:18:47.836Z,13.50
2019-03-29T10:21:53.446Z,13.20
2019-03-29T10:25:01.822Z,13.50
2019-03-29T10:28:06.535Z,14.70
2019-03-29T10:31:12.549Z,16.40
2019-03-29T10:34:18.149Z,17.50
2019-03-29T10:37:24.040Z,18.40
2019-03-29T10:40:29.862Z,19.10
2019-03-29T10:43:35.231Z,19.60
2019-03-29T10:46:44.275Z,20.40
2019-03-29T10:49:49.767Z,20.90
2019-03-29T10:52:55.485Z,21.30
2019-03-29T10:56:01.437Z,21.90
2019-03-29T10:59:07.572Z,23.70
2019-03-29T11:02:13.161Z,24.10
2019-03-29T11:05:20.955Z,24.00
2019-03-29T11:08:26.900Z,23.90
2019-03-29T11:11:32.779Z,24.10
2019-03-29T11:14:39.454Z,24.50
2019-03-29T11:17:45.973Z,24.70
2019-03-29T11:20:51.898Z,24.70
2019-03-29T11:23:57.452Z,25.00
2019-03-29T11:27:04.039Z,25.00
2019-03-29T11:30:09.683Z,25.30
2019-03-29T11:33:15.697Z,25.60
2019-03-29T11:36:21.399Z,26.30
2019-03-29T11:39:27.585Z,26.50
2019-03-29T11:42:33.227Z,26.50
2019-03-29T11:45:38.864Z,26.70
2019-03-29T11:48:44.484Z,26.00
2019-03-29T11:51:50.067Z,26.40
2019-03-29T11:54:56.728Z,26.40
2019-03-29T11:58:03.077Z,25.90
2019-03-29T12:01:08.947Z,26.30
2019-03-29T12:04:14.565Z,26.20
2019-03-29T12:07:20.390Z,26.50
2019-03-29T12:10:26.199Z,26.00
2019-03-29T12:13:40.848Z,25.50
2019-03-29T12:16:39.359Z,25.10
2019-03-29T12:19:44.981Z,26.20
2019-03-29T12:22:50.457Z,25.20
2019-03-29T12:25:56.058Z,25.10
2019-03-29T12:29:01.576Z,25.00
2019-03-29T12:32:07.169Z,25.20
2019-03-29T12:35:12.504Z,25.60
2019-03-29T12:38:18.460Z,25.40
2019-03-29T12:41:23.659Z,26.30
2019-03-29T12:44:29.394Z,25.80
2019-03-29T12:47:34.640Z,26.60
2019-03-29T12:50:40.448Z,26.60
2019-03-29T12:53:46.011Z,26.60
2019-03-29T12:56:51.793Z,26.60
2019-03-29T13:00:16.267Z,26.50
2019-03-29T13:03:21.797Z,26.30
2019-03-29T13:06:27.359Z,26.40
2019-03-29T13:09:32.864Z,26.70
2019-03-29T13:12:38.410Z,27.00
2019-03-29T13:15:45.209Z,26.90
2019-03-29T13:18:53.546Z,26.90
2019-03-29T13:21:58.003Z,27.40
2019-03-29T13:25:07.186Z,27.40
2019-03-29T13:28:11.265Z,27.60
2019-03-29T13:31:16.971Z,27.60
2019-03-29T13:34:25.653Z,28.00
2019-03-29T13:37:33.185Z,27.60
2019-03-29T13:40:38.751Z,28.00
2019-03-29T13:43:44.293Z,28.20
2019-03-29T13:46:52.878Z,28.70
2019-03-29T13:49:58.309Z,28.50
2019-03-29T13:53:04.109Z,28.20
2019-03-29T13:56:10.895Z,28.30
2019-03-29T13:59:16.832Z,28.10
2019-03-29T14:02:22.930Z,28.40
2019-03-29T14:05:28.799Z,28.10
2019-03-29T14:08:34.951Z,28.10
2019-03-29T14:11:40.841Z,28.40
2019-03-29T14:14:46.828Z,28.70
2019-03-29T14:17:53.546Z,28.80
2019-03-29T14:21:06.078Z,28.90
2019-03-29T14:24:11.824Z,28.50
2019-03-29T14:27:17.723Z,28.70
2019-03-29T14:30:23.535Z,29.10
2019-03-29T14:33:30.108Z,29.10
2019-03-29T14:36:35.731Z,29.10
2019-03-29T14:39:41.738Z,30.50
2019-03-29T14:42:47.495Z,30.40
2019-03-29T14:45:53.332Z,30.40
2019-03-29T14:48:58.978Z,30.30
2019-03-29T14:52:04.612Z,30.30
2019-03-29T14:55:11.811Z,30.50
2019-03-29T14:58:17.825Z,30.10
2019-03-29T15:01:23.779Z,30.20
2019-03-29T15:04:29.368Z,30.20
2019-03-29T15:07:35.270Z,30.30
2019-03-29T15:10:40.900Z,30.80
2019-03-29T15:13:46.653Z,30.70
2019-03-29T15:16:52.256Z,30.60
2019-03-29T15:19:57.857Z,30.20
2019-03-29T15:23:03.333Z,30.30
2019-03-29T15:26:08.834Z,30.30
2019-03-29T15:29:14.585Z,30.60
2019-03-29T15:32:20.662Z,30.50
2019-03-29T15:35:26.070Z,30.70
2019-03-29T15:38:31.848Z,30.70
2019-03-29T15:41:37.425Z,30.20
2019-03-29T15:44:45.126Z,29.80
2019-03-29T15:47:51.208Z,30.00
2019-03-29T15:50:57.076Z,29.90
2019-03-29T15:54:02.680Z,30.00
2019-03-29T15:57:08.590Z,30.10
2019-03-29T16:00:15.663Z,30.30
2019-03-29T16:03:21.446Z,30.20
2019-03-29T16:06:27.197Z,30.20
2019-03-29T16:09:32.662Z,30.30
2019-03-29T16:12:38.735Z,30.20
2019-03-29T16:15:44.232Z,30.20
2019-03-29T16:18:50.769Z,30.30
2019-03-29T16:21:56.495Z,30.60
2019-03-29T16:25:01.995Z,30.90
2019-03-29T16:28:07.407Z,31.00
2019-03-29T16:31:13.064Z,31.20
2019-03-29T16:34:18.845Z,31.40
2019-03-29T16:37:24.281Z,31.70
2019-03-29T16:40:31.225Z,31.70
2019-03-29T16:43:37.597Z,31.90
2019-03-29T16:46:43.362Z,32.00
2019-03-29T16:49:49.127Z,32.10
2019-03-29T16:52:54.664Z,32.10
2019-03-29T16:56:00.346Z,32.20
2019-03-29T16:59:06.073Z,32.30
2019-03-29T17:02:11.717Z,32.20
2019-03-29T17:05:17.685Z,32.30
2019-03-29T17:08:23.516Z,32.70
2019-03-29T17:11:29.128Z,32.90
2019-03-29T17:14:34.587Z,32.90
2019-03-29T17:17:40.094Z,32.80
2019-03-29T17:20:45.875Z,33.20
2019-03-29T17:23:52.860Z,33.30
2019-03-29T17:26:58.632Z,33.40
2019-03-29T17:30:04.731Z,33.70
2019-03-29T17:33:10.181Z,33.90
2019-03-29T17:36:15.854Z,34.10
2019-03-29T17:39:22.668Z,34.20
2019-03-29T17:42:28.384Z,34.60
2019-03-29T17:45:37.270Z,34.70
2019-03-29T17:48:42.879Z,34.90
2019-03-29T17:51:48.649Z,35.10
2019-03-29T17:54:56.015Z,35.30
2019-03-29T17:58:01.530Z,35.50
2019-03-29T18:01:07.146Z,35.60
2019-03-29T18:04:13.034Z,35.70
2019-03-29T18:07:18.961Z,36.00
2019-03-29T18:10:25.772Z,36.20
2019-03-29T18:13:31.733Z,36.40
2019-03-29T18:16:37.285Z,36.50
2019-03-29T18:19:43.834Z,37.00
2019-03-29T18:22:49.710Z,37.30
2019-03-29T18:25:55.322Z,37.70
2019-03-29T18:29:01.332Z,37.60
2019-03-29T18:32:07.127Z,37.90
2019-03-29T18:35:13.099Z,38.10
2019-03-29T18:38:18.811Z,38.20
2019-03-29T18:41:24.745Z,38.40
2019-03-29T18:44:30.778Z,38.80
2019-03-29T18:47:36.290Z,39.30
2019-03-29T18:50:41.895Z,39.50
2019-03-29T18:53:47.874Z,39.90
2019-03-29T18:56:54.801Z,40.40
2019-03-29T19:00:00.895Z,40.40
2019-03-29T19:03:06.842Z,40.90
2019-03-29T19:06:12.869Z,41.00
2019-03-29T19:09:18.498Z,41.40
2019-03-29T19:12:25.550Z,41.60
2019-03-29T19:15:31.437Z,41.70
2019-03-29T19:18:38.786Z,41.80
2019-03-29T19:21:45.718Z,42.10
2019-03-29T19:24:51.343Z,42.40
2019-03-29T19:27:57.047Z,42.70
2019-03-29T19:31:03.513Z,42.80
2019-03-29T19:34:09.904Z,42.90
2019-03-29T19:37:15.722Z,43.10
2019-03-29T19:40:21.748Z,43.20
2019-03-29T19:43:32.684Z,43.40
2019-03-29T19:46:40.248Z,43.30
2019-03-29T19:49:45.877Z,43.80
2019-03-29T19:52:51.718Z,43.90
2019-03-29T19:55:58.679Z,44.10
2019-03-29T19:59:05.248Z,44.30
2019-03-29T20:02:12.540Z,44.30
2019-03-29T20:05:28.891Z,44.50
2019-03-29T20:08:34.600Z,44.80
2019-03-29T20:11:41.230Z,45.00
2019-03-29T20:14:47.834Z,45.00
2019-03-29T20:17:53.538Z,45.40
2019-03-29T20:20:58.918Z,45.60
2019-03-29T20:24:05.145Z,45.90
2019-03-29T20:27:10.907Z,46.00
2019-03-29T20:30:16.723Z,45.90
2019-03-29T20:33:22.645Z,46.20
2019-03-29T20:36:28.442Z,46.50
2019-03-29T20:39:34.025Z,46.80
2019-03-29T20:42:39.737Z,47.00
2019-03-29T20:45:45.533Z,47.10
2019-03-29T20:49:00.534Z,47.10
2019-03-29T20:52:06.979Z,47.20
2019-03-29T20:55:12.738Z,47.20
2019-03-29T20:58:19.993Z,47.30
2019-03-29T21:01:26.030Z,47.50
2019-03-29T21:04:31.967Z,47.70
2019-03-29T21:07:38.397Z,47.70
2019-03-29T21:10:55.650Z,47.90
2019-03-29T21:13:52.187Z,47.90
2019-03-29T21:17:00.797Z,48.10
2019-03-29T21:20:07.691Z,48.30
2019-03-29T21:23:14.044Z,48.40
2019-03-29T21:26:21.468Z,48.50
2019-03-29T21:29:30.938Z,48.70
2019-03-29T21:32:38.484Z,48.80
2019-03-29T21:35:44.212Z,48.90
2019-03-29T21:38:50.975Z,48.90
2019-03-29T21:41:56.986Z,49.10
2019-03-29T21:45:02.634Z,49.20
2019-03-29T21:48:27.419Z,49.40
2019-03-29T21:51:15.823Z,49.50
2019-03-29T21:54:21.611Z,49.50
2019-03-29T21:57:27.425Z,49.70
2019-03-29T22:00:32.962Z,50.00
2019-03-29T22:03:42.795Z,50.00
2019-03-29T22:06:48.570Z,49.90
2019-03-29T22:09:54.484Z,50.00
2019-03-29T22:13:00.081Z,50.70
2019-03-29T22:16:05.655Z,50.40
2019-03-29T22:19:11.343Z,51.10
2019-03-29T22:22:17.118Z,50.60
2019-03-29T22:25:23.971Z,50.90
2019-03-29T22:28:30.314Z,51.10
2019-03-29T22:31:35.785Z,51.30
2019-03-29T22:34:41.998Z,51.30
2019-03-29T22:37:47.749Z,51.40
2019-03-29T22:40:53.652Z,51.40
2019-03-29T22:43:59.215Z,51.70
2019-03-29T22:47:04.588Z,51.70
2019-03-29T22:50:10.136Z,51.80
2019-03-29T22:53:15.718Z,51.80
2019-03-29T22:56:21.482Z,51.80
2019-03-29T22:59:27.150Z,51.90
2019-03-29T23:02:32.682Z,52.10
2019-03-29T23:05:39.131Z,52.40
2019-03-29T23:08:44.908Z,53.60
2019-03-29T23:11:51.410Z,53.90
2019-03-29T23:14:57.930Z,53.90
2019-03-29T23:18:04.771Z,54.10
2019-03-29T23:21:14.284Z,54.20
2019-03-29T23:24:19.931Z,54.10
2019-03-29T23:27:25.704Z,54.30
2019-03-29T23:30:31.251Z,54.50
2019-03-29T23:33:39.203Z,54.90
2019-03-29T23:36:45.033Z,54.80
2019-03-29T23:39:52.189Z,55.10
2019-03-29T23:42:57.786Z,55.50
2019-03-29T23:46:04.022Z,55.60
2019-03-29T23:49:20.443Z,55.60
2019-03-29T23:52:20.184Z,55.60
2019-03-29T23:55:25.865Z,55.70
2019-03-29T23:58:31.645Z,55.90
